Time;durP1;ratioP1;P1;durP2;ratioP2;P2;SDS_P1;SDS_P2;PMS_P1;PMS_P2;Temp;Humidity;BMP_temperature;BMP_pressure;BME280_temperature;BME280_humidity;BME280_pressure;Samples;Min_cycle;Max_cycle;Signal;HPM_P1;HPM_P2
2024/01/25 00:01:32;;;;;;;337.08;198.73;;;3.60;99.90;;;;;;6223346;23;20012;-77
2024/01/25 00:03:59;;;;;;;291.42;169.00;;;3.50;1.00;;;;;;6223348;23;20012;-79
2024/01/25 00:06:28;;;;;;;271.70;157.48;;;3.50;1.00;;;;;;6186710;23;20108;-78
2024/01/25 00:08:56;;;;;;;315.88;177.25;;;3.60;1.00;;;;;;6186266;23;20012;-78
2024/01/25 00:11:23;;;;;;;294.45;168.48;;;3.80;99.90;;;;;;6187874;23;20019;-77
2024/01/25 00:13:51;;;;;;;289.58;167.73;;;3.90;28.70;;;;;;6223054;23;20027;-79
2024/01/25 00:16:18;;;;;;;268.30;149.98;;;3.90;1.00;;;;;;6223816;23;20028;-78
2024/01/25 00:18:46;;;;;;;260.75;147.40;;;3.90;99.90;;;;;;6222908;23;20020;-77
2024/01/25 00:21:13;;;;;;;250.32;140.10;;;4.00;1.00;;;;;;6223305;23;20012;-78
2024/01/25 00:23:42;;;;;;;245.73;136.23;;;4.00;1.00;;;;;;6222603;23;20056;-78
2024/01/25 00:26:09;;;;;;;228.05;130.05;;;4.00;1.00;;;;;;6187308;23;20016;-78
2024/01/25 00:28:37;;;;;;;227.48;126.03;;;4.00;1.00;;;;;;6223192;23;20015;-79
2024/01/25 00:31:05;;;;;;;235.18;125.47;;;4.10;1.00;;;;;;6223342;23;20628;-79
2024/01/25 00:33:32;;;;;;;252.32;130.88;;;4.10;99.90;;;;;;6223817;23;20027;-77
2024/01/25 00:36:00;;;;;;;244.52;130.27;;;4.20;1.00;;;;;;6186247;23;20023;-79
2024/01/25 00:38:28;;;;;;;277.38;144.23;;;4.30;99.90;;;;;;6185807;23;20349;-79
2024/01/25 00:40:57;;;;;;;292.60;148.23;;;4.10;1.00;;;;;;6186381;23;20096;-78
2024/01/25 00:43:25;;;;;;;285.50;146.63;;;4.10;99.90;;;;;;6223955;23;20023;-77
2024/01/25 00:45:53;;;;;;;269.15;141.27;;;4.10;1.00;;;;;;6222463;23;20023;-78
2024/01/25 00:48:21;;;;;;;251.98;131.57;;;4.20;96.60;;;;;;6223544;23;20009;-76
2024/01/25 00:50:49;;;;;;;246.73;129.70;;;4.20;99.90;;;;;;6222136;23;20012;-78
2024/01/25 00:53:17;;;;;;;258.83;136.90;;;4.20;99.90;;;;;;6222947;23;20008;-79
2024/01/25 00:55:45;;;;;;;249.27;129.20;;;4.20;99.90;;;;;;6186300;23;20489;-76
2024/01/25 00:58:15;;;;;;;236.48;127.90;;;4.20;99.90;;;;;;6223763;23;20119;-77
2024/01/25 01:00:43;;;;;;;242.27;125.97;;;4.20;1.00;;;;;;6188046;23;20044;-77
2024/01/25 01:03:11;;;;;;;240.65;129.57;;;4.20;1.00;;;;;;6223336;23;20426;-79
2024/01/25 01:05:39;;;;;;;236.38;127.28;;;4.10;99.90;;;;;;6185873;23;20036;-80
2024/01/25 01:08:07;;;;;;;223.23;122.82;;;4.10;1.00;;;;;;6222478;23;20024;-77
2024/01/25 01:10:35;;;;;;;225.90;121.18;;;4.10;1.00;;;;;;6186344;23;20024;-76
2024/01/25 01:13:02;;;;;;;230.32;121.63;;;4.00;99.90;;;;;;6222326;23;20070;-78
2024/01/25 01:15:31;;;;;;;206.95;112.53;;;3.90;64.10;;;;;;6185368;23;20054;-77
2024/01/25 01:17:58;;;;;;;188.43;104.22;;;4.00;99.90;;;;;;6186043;23;20017;-76
2024/01/25 01:20:26;;;;;;;186.00;101.22;;;4.10;99.90;;;;;;6185535;23;20453;-78
2024/01/25 01:22:54;;;;;;;171.15;94.50;;;4.10;1.00;;;;;;6186629;23;20445;-77
2024/01/25 01:25:21;;;;;;;175.75;93.85;;;4.20;1.00;;;;;;6185038;23;20022;-80
2024/01/25 01:27:48;;;;;;;198.35;108.80;;;4.30;1.00;;;;;;6222906;23;20024;-78
2024/01/25 01:30:16;;;;;;;229.52;118.97;;;4.30;94.40;;;;;;6225150;23;20008;-79
2024/01/25 01:32:44;;;;;;;223.93;120.57;;;4.30;11.20;;;;;;6223766;23;20456;-77
2024/01/25 01:35:12;;;;;;;208.30;113.22;;;4.30;1.00;;;;;;6221637;23;20016;-79
2024/01/25 01:37:39;;;;;;;213.25;115.55;;;4.30;1.00;;;;;;6222980;23;20043;-78
2024/01/25 01:40:08;;;;;;;214.68;117.30;;;4.20;99.90;;;;;;6222138;23;20019;-79
2024/01/25 01:42:35;;;;;;;214.68;116.53;;;4.20;99.90;;;;;;6186147;23;20441;-78
2024/01/25 01:45:03;;;;;;;206.55;112.70;;;4.10;1.00;;;;;;6185050;23;20020;-77
2024/01/25 01:47:30;;;;;;;189.82;102.75;;;4.10;1.00;;;;;;6222248;23;20021;-76
2024/01/25 01:49:59;;;;;;;198.60;108.75;;;4.00;1.00;;;;;;6222032;23;20016;-78
2024/01/25 01:52:27;;;;;;;211.10;116.80;;;4.00;99.90;;;;;;6185393;23;20013;-79
2024/01/25 01:54:54;;;;;;;199.32;114.53;;;4.10;1.00;;;;;;6185273;23;20013;-78
2024/01/25 01:57:21;;;;;;;194.35;112.50;;;4.00;1.00;;;;;;6217294;23;20378;-74
2024/01/25 01:59:50;;;;;;;201.35;119.15;;;4.10;1.00;;;;;;6189482;23;20017;-73
2024/01/25 02:02:17;;;;;;;179.20;109.50;;;4.00;99.90;;;;;;6226669;23;20397;-75
2024/01/25 02:04:45;;;;;;;166.55;99.90;;;4.00;1.00;;;;;;6224937;23;20433;-74
2024/01/25 02:07:14;;;;;;;152.18;92.85;;;3.90;1.00;;;;;;6188759;23;20016;-74
2024/01/25 02:09:41;;;;;;;144.70;85.60;;;3.90;99.90;;;;;;6187840;23;20129;-75
2024/01/25 02:12:09;;;;;;;139.27;84.63;;;3.90;99.90;;;;;;6223781;23;20023;-75
2024/01/25 02:14:36;;;;;;;149.32;89.93;;;3.90;1.00;;;;;;6223664;23;20063;-74
2024/01/25 02:17:04;;;;;;;140.85;86.60;;;4.10;1.00;;;;;;6225050;23;20024;-75
2024/01/25 02:19:31;;;;;;;156.77;92.50;;;4.20;1.00;;;;;;6222838;23;20040;-75
2024/01/25 02:22:00;;;;;;;176.60;103.28;;;4.20;1.00;;;;;;6186683;23;20441;-74
2024/01/25 02:24:29;;;;;;;155.85;95.35;;;4.20;1.00;;;;;;6223469;23;20084;-75
2024/01/25 02:26:56;;;;;;;166.55;100.45;;;4.20;1.00;;;;;;6185848;23;20441;-76
2024/01/25 02:29:24;;;;;;;165.20;101.03;;;4.20;99.90;;;;;;6223552;23;20023;-75
2024/01/25 02:31:51;;;;;;;159.73;97.80;;;4.20;1.00;;;;;;6187770;23;20016;-73
2024/01/25 02:34:19;;;;;;;182.23;103.85;;;4.30;1.00;;;;;;6225920;23;20016;-76
2024/01/25 02:36:46;;;;;;;180.27;102.60;;;4.30;99.90;;;;;;6206725;23;20092;-76
2024/01/25 02:39:15;;;;;;;194.07;107.43;;;4.30;1.00;;;;;;6201072;23;20468;-76
2024/01/25 02:41:44;;;;;;;179.13;99.35;;;4.40;1.00;;;;;;6224781;23;20020;-75
2024/01/25 02:44:13;;;;;;;185.77;103.72;;;4.20;29.80;;;;;;6223394;23;20365;-74
2024/01/25 02:46:40;;;;;;;178.68;100.97;;;4.00;99.90;;;;;;6223807;23;20019;-74
2024/01/25 02:49:07;;;;;;;190.13;105.00;;;3.80;1.00;;;;;;6223027;23;20016;-74
2024/01/25 02:51:35;;;;;;;193.95;104.22;;;4.00;1.00;;;;;;6190217;23;20020;-74
2024/01/25 02:54:02;;;;;;;188.43;102.97;;;4.00;1.00;;;;;;6224960;23;20023;-73
2024/01/25 02:56:34;;;;;;;174.23;93.13;;;4.00;1.00;;;;;;6186442;23;20322;-75
2024/01/25 02:59:03;;;;;;;159.27;87.35;;;4.00;1.00;;;;;;6222022;23;20170;-74
2024/01/25 03:01:39;;;;;;;181.95;97.65;;;4.00;1.00;;;;;;6186414;23;20491;-73
2024/01/25 03:04:06;;;;;;;165.25;89.82;;;3.70;1.00;;;;;;6222323;23;20027;-75
2024/01/25 03:06:34;;;;;;;153.13;86.95;;;3.60;1.00;;;;;;6228271;23;20020;-74
2024/01/25 03:09:04;;;;;;;158.68;89.70;;;3.70;99.90;;;;;;6228324;23;20013;-74
2024/01/25 03:11:31;;;;;;;159.40;90.63;;;3.70;99.90;;;;;;6227447;23;20012;-74
2024/01/25 03:13:59;;;;;;;161.43;90.90;;;3.80;99.90;;;;;;6229749;23;20008;-77
2024/01/25 03:16:28;;;;;;;165.02;90.97;;;4.00;99.90;;;;;;6223435;23;20023;-75
2024/01/25 03:18:55;;;;;;;173.48;96.45;;;4.10;99.90;;;;;;6223103;23;20020;-74
2024/01/25 03:21:23;;;;;;;156.63;88.95;;;4.10;22.80;;;;;;6231705;23;20023;-76
2024/01/25 03:23:50;;;;;;;157.02;88.35;;;4.00;1.00;;;;;;6240426;23;20019;-75
2024/01/25 03:26:18;;;;;;;163.82;90.13;;;4.00;1.00;;;;;;6203187;23;20479;-75
2024/01/25 03:28:45;;;;;;;153.27;87.85;;;4.10;1.00;;;;;;6233974;23;20019;-74
2024/01/25 03:31:13;;;;;;;151.45;87.38;;;4.20;1.00;;;;;;6188027;23;20080;-74
2024/01/25 03:33:42;;;;;;;152.57;85.15;;;4.20;1.00;;;;;;6223060;23;20012;-73
2024/01/25 03:36:09;;;;;;;156.02;88.85;;;4.40;36.10;;;;;;6222809;23;20009;-74
2024/01/25 03:38:37;;;;;;;159.98;89.15;;;4.30;1.00;;;;;;6222293;23;20090;-74
2024/01/25 03:41:04;;;;;;;152.93;86.65;;;4.30;1.00;;;;;;6186106;23;20031;-73
2024/01/25 03:43:32;;;;;;;153.80;87.18;;;4.40;1.00;;;;;;6222605;23;20032;-74
2024/01/25 03:46:00;;;;;;;149.70;88.18;;;4.30;1.00;;;;;;6189641;23;20498;-73
2024/01/25 03:48:27;;;;;;;161.90;87.55;;;4.30;1.00;;;;;;6237750;23;20091;-75
2024/01/25 03:50:56;;;;;;;156.45;86.70;;;4.20;1.00;;;;;;6208993;23;20013;-74
2024/01/25 03:53:23;;;;;;;152.95;87.07;;;4.20;1.00;;;;;;6206956;23;20362;-73
2024/01/25 03:55:51;;;;;;;152.05;87.55;;;4.10;1.00;;;;;;6204701;23;20023;-75
2024/01/25 03:58:19;;;;;;;150.48;87.22;;;4.10;1.00;;;;;;6234143;23;20027;-74
2024/01/25 04:00:46;;;;;;;156.90;87.95;;;4.00;1.00;;;;;;6222692;23;20257;-74
2024/01/25 04:03:14;;;;;;;152.77;89.53;;;4.00;1.00;;;;;;6185800;23;20040;-75
2024/01/25 04:05:42;;;;;;;144.48;85.25;;;4.00;1.00;;;;;;6221443;23;20012;-73
2024/01/25 04:08:11;;;;;;;128.48;76.85;;;3.90;1.00;;;;;;6225759;23;20027;-73
2024/01/25 04:10:38;;;;;;;143.05;89.20;;;4.00;34.40;;;;;;6223822;23;20012;-72
2024/01/25 04:13:07;;;;;;;138.85;84.10;;;4.10;93.30;;;;;;6222530;23;20111;-74
2024/01/25 04:15:34;;;;;;;105.93;68.18;;;4.10;1.00;;;;;;6185197;23;20080;-72
2024/01/25 04:18:02;;;;;;;128.75;77.07;;;4.00;1.00;;;;;;6185959;23;20021;-74
2024/01/25 04:20:30;;;;;;;114.47;74.05;;;4.00;1.00;;;;;;6223544;23;20043;-73
2024/01/25 04:22:58;;;;;;;115.50;74.25;;;4.00;1.00;;;;;;6223393;23;20037;-74
2024/01/25 04:25:27;;;;;;;114.72;72.60;;;4.00;1.00;;;;;;6185226;23;20013;-74
2024/01/25 04:27:54;;;;;;;89.10;57.40;;;4.10;1.00;;;;;;6186369;23;20020;-74
2024/01/25 04:30:22;;;;;;;102.20;60.53;;;4.20;1.00;;;;;;6187711;23;20354;-76
2024/01/25 04:32:49;;;;;;;104.43;64.80;;;4.20;1.00;;;;;;6225141;23;20465;-76
2024/01/25 04:35:17;;;;;;;93.55;58.80;;;4.30;1.00;;;;;;6227003;23;20023;-75
2024/01/25 04:37:44;;;;;;;85.10;53.47;;;4.20;1.00;;;;;;6190813;23;20024;-73
2024/01/25 04:40:12;;;;;;;80.95;49.90;;;4.20;1.00;;;;;;6208573;23;20040;-74
2024/01/25 04:42:41;;;;;;;83.40;50.85;;;4.30;1.00;;;;;;6214192;23;20001;-76
2024/01/25 04:45:09;;;;;;;76.88;49.10;;;4.40;1.00;;;;;;6243975;23;20036;-72
2024/01/25 04:47:38;;;;;;;82.65;49.03;;;4.30;1.00;;;;;;6188245;23;20315;-73
2024/01/25 04:50:06;;;;;;;85.00;53.95;;;4.40;1.00;;;;;;6223781;23;20016;-74
2024/01/25 04:52:34;;;;;;;84.82;49.45;;;4.50;1.00;;;;;;6188772;23;20020;-74
2024/01/25 04:55:06;;;;;;;76.15;47.80;;;4.50;99.90;;;;;;6189178;23;20016;-74
2024/01/25 04:57:34;;;;;;;71.53;43.85;;;4.30;99.90;;;;;;6183343;23;20394;-73
2024/01/25 05:00:03;;;;;;;89.88;52.50;;;4.30;1.00;;;;;;6183504;23;20128;-73
2024/01/25 05:02:31;;;;;;;93.30;57.30;;;4.30;1.00;;;;;;6183138;23;20067;-72
2024/01/25 05:04:58;;;;;;;92.53;55.20;;;4.40;1.00;;;;;;6193389;23;20017;-74
2024/01/25 05:07:25;;;;;;;87.18;50.17;;;4.50;1.00;;;;;;6193865;23;20024;-73
2024/01/25 05:09:53;;;;;;;89.32;51.33;;;4.50;1.00;;;;;;6194066;23;20023;-73
2024/01/25 05:12:20;;;;;;;85.43;48.90;;;4.50;1.00;;;;;;6193879;23;20060;-74
2024/01/25 05:14:48;;;;;;;81.75;47.25;;;4.50;1.00;;;;;;6194105;23;20103;-73
2024/01/25 05:17:17;;;;;;;94.25;52.80;;;4.50;99.90;;;;;;6193606;23;20048;-73
2024/01/25 05:19:44;;;;;;;127.95;64.07;;;4.50;99.90;;;;;;6193664;23;20021;-74
2024/01/25 05:22:12;;;;;;;98.53;53.83;;;4.40;1.00;;;;;;6193490;23;20035;-73
2024/01/25 05:24:40;;;;;;;85.25;47.83;;;4.40;99.90;;;;;;6192989;23;20021;-73
2024/01/25 05:27:07;;;;;;;91.95;50.65;;;4.40;99.90;;;;;;6193775;23;20017;-73
2024/01/25 05:29:35;;;;;;;91.07;50.80;;;4.40;1.00;;;;;;6182201;23;20021;-74
2024/01/25 05:32:02;;;;;;;87.90;48.63;;;4.40;99.90;;;;;;6182101;23;20342;-74
2024/01/25 05:34:31;;;;;;;88.68;50.53;;;4.40;99.90;;;;;;6192939;23;20321;-75
2024/01/25 05:36:59;;;;;;;94.63;50.58;;;4.40;1.00;;;;;;6203618;23;20535;-75
2024/01/25 05:39:26;;;;;;;98.72;52.80;;;4.50;1.00;;;;;;6207871;23;20036;-73
2024/01/25 05:41:54;;;;;;;88.43;47.15;;;4.50;99.90;;;;;;6205332;23;20016;-73
2024/01/25 05:44:21;;;;;;;82.22;46.13;;;4.40;1.00;;;;;;6193107;23;20013;-73
2024/01/25 05:46:49;;;;;;;87.60;46.08;;;4.30;1.00;;;;;;6193808;23;20021;-73
2024/01/25 05:49:16;;;;;;;66.90;37.60;;;4.40;1.00;;;;;;6183140;23;20045;-75
2024/01/25 05:51:45;;;;;;;78.60;43.83;;;4.40;1.00;;;;;;6190641;23;20017;-76
2024/01/25 05:54:12;;;;;;;78.82;44.00;;;4.50;1.00;;;;;;6184187;23;20402;-73
2024/01/25 05:56:40;;;;;;;77.10;44.60;;;4.60;1.00;;;;;;6193978;23;20080;-73
2024/01/25 05:59:07;;;;;;;69.72;41.10;;;4.70;1.00;;;;;;6219170;23;20488;-74
2024/01/25 06:01:35;;;;;;;85.55;48.03;;;4.70;1.00;;;;;;6224640;23;20013;-73
2024/01/25 06:04:02;;;;;;;85.57;48.22;;;4.60;1.00;;;;;;6225635;23;20016;-75
2024/01/25 06:06:30;;;;;;;89.43;47.17;;;4.50;1.00;;;;;;6233817;23;20040;-75
2024/01/25 06:08:59;;;;;;;88.20;48.63;;;4.70;1.00;;;;;;6234441;23;20019;-75
2024/01/25 06:11:26;;;;;;;98.40;53.38;;;4.70;1.00;;;;;;6234017;23;20013;-74
2024/01/25 06:13:54;;;;;;;136.48;65.30;;;4.70;1.00;;;;;;6236499;23;20020;-75
2024/01/25 06:16:21;;;;;;;122.68;61.50;;;4.60;1.00;;;;;;6186605;23;20103;-73
2024/01/25 06:18:49;;;;;;;112.30;55.97;;;4.70;1.00;;;;;;6222238;23;20032;-75
2024/01/25 06:21:16;;;;;;;98.60;51.30;;;4.70;1.00;;;;;;6185053;23;20016;-74
2024/01/25 06:23:44;;;;;;;97.57;51.58;;;4.70;1.00;;;;;;6221357;23;20448;-74
2024/01/25 06:26:12;;;;;;;93.57;53.85;;;4.80;1.00;;;;;;6189201;23;20021;-77
2024/01/25 06:28:41;;;;;;;90.68;51.10;;;4.90;1.00;;;;;;6227779;23;20017;-75
2024/01/25 06:31:08;;;;;;;84.60;50.33;;;5.00;99.90;;;;;;6192252;23;20039;-74
2024/01/25 06:33:36;;;;;;;92.72;51.85;;;5.10;99.90;;;;;;6222613;23;20032;-74
2024/01/25 06:36:03;;;;;;;94.90;52.17;;;5.00;1.00;;;;;;6220624;23;20271;-73
2024/01/25 06:38:31;;;;;;;106.10;59.17;;;5.00;1.00;;;;;;6220867;23;20036;-75
2024/01/25 06:40:58;;;;;;;101.00;55.65;;;5.10;99.90;;;;;;6220338;23;20027;-75
2024/01/25 06:43:27;;;;;;;95.47;51.63;;;5.00;1.00;;;;;;6185027;23;20013;-75
2024/01/25 06:45:55;;;;;;;109.60;59.40;;;4.80;1.00;;;;;;6226738;23;20016;-74
2024/01/25 06:48:22;;;;;;;104.03;57.00;;;4.80;99.90;;;;;;6229415;23;20092;-75
2024/01/25 06:50:50;;;;;;;100.20;57.08;;;4.80;99.90;;;;;;6233561;23;20099;-74
2024/01/25 06:53:18;;;;;;;121.57;66.50;;;4.90;1.00;;;;;;6186892;23;20342;-74
2024/01/25 06:55:46;;;;;;;115.43;65.13;;;4.90;1.00;;;;;;6185154;23;20048;-74
2024/01/25 06:59:40;;;;;;;137.35;75.35;;;4.90;1.00;;;;;;5100161;27;20405;-75
2024/01/25 07:02:08;;;;;;;124.70;74.32;;;4.80;1.00;;;;;;5086124;28;20048;-75
2024/01/25 07:04:37;;;;;;;121.18;75.90;;;4.70;1.00;;;;;;5083042;28;20043;-75
2024/01/25 07:07:05;;;;;;;123.78;73.93;;;4.90;49.30;;;;;;5083712;28;20048;-74
2024/01/25 07:09:33;;;;;;;125.47;76.65;;;5.00;1.00;;;;;;5084583;28;20051;-74
2024/01/25 07:12:00;;;;;;;123.32;74.05;;;5.00;1.00;;;;;;5085341;28;20064;-75
2024/01/25 07:14:28;;;;;;;114.13;69.38;;;5.10;1.00;;;;;;5085651;28;20036;-75
2024/01/25 07:16:57;;;;;;;113.30;67.93;;;5.20;1.00;;;;;;5085437;28;20048;-74
2024/01/25 07:19:24;;;;;;;118.28;74.93;;;5.10;1.00;;;;;;5087671;28;20119;-75
2024/01/25 07:21:52;;;;;;;152.75;93.03;;;5.00;1.00;;;;;;5089527;28;20106;-75
2024/01/25 07:24:19;;;;;;;119.00;73.35;;;5.00;1.00;;;;;;5101645;28;20044;-75
2024/01/25 07:26:47;;;;;;;135.48;79.15;;;4.90;1.00;;;;;;5090402;28;20137;-76
2024/01/25 07:29:14;;;;;;;159.20;94.35;;;4.70;99.90;;;;;;5087707;28;20051;-77
2024/01/25 07:31:42;;;;;;;161.27;94.20;;;4.80;99.90;;;;;;5087126;28;20044;-73
2024/01/25 07:34:11;;;;;;;161.93;98.18;;;4.90;99.90;;;;;;5086820;28;20046;-76
2024/01/25 07:36:38;;;;;;;158.98;96.03;;;5.10;1.00;;;;;;5090049;28;20071;-74
2024/01/25 07:39:06;;;;;;;156.73;94.03;;;5.20;1.00;;;;;;5088588;28;20041;-73
2024/01/25 07:41:34;;;;;;;147.55;86.97;;;5.30;99.90;;;;;;5086713;28;20036;-75
2024/01/25 07:44:01;;;;;;;133.20;76.68;;;5.50;99.90;;;;;;5081748;28;20107;-76
2024/01/25 07:46:29;;;;;;;115.88;69.57;;;5.80;1.00;;;;;;5082859;28;20051;-74
2024/01/25 07:48:56;;;;;;;129.50;75.53;;;6.20;1.00;;;;;;5088408;28;20048;-75
2024/01/25 07:51:28;;;;;;;122.88;72.97;;;6.20;91.80;;;;;;5094146;28;20072;-76
2024/01/25 07:53:56;;;;;;;106.40;66.38;;;6.40;99.90;;;;;;5092816;28;20059;-75
2024/01/25 07:56:23;;;;;;;111.60;67.47;;;6.60;1.00;;;;;;5087983;28;20059;-72
2024/01/25 07:58:51;;;;;;;110.00;67.43;;;6.50;1.00;;;;;;5083662;28;20049;-75
2024/01/25 08:01:19;;;;;;;103.05;63.53;;;6.40;1.00;;;;;;5085297;28;20070;-74
2024/01/25 08:03:47;;;;;;;103.13;63.88;;;6.20;99.90;;;;;;5083563;28;20523;-75
2024/01/25 08:06:15;;;;;;;107.90;64.88;;;6.10;1.00;;;;;;5086627;28;20039;-74
2024/01/25 08:08:44;;;;;;;115.97;71.55;;;6.20;99.90;;;;;;5085684;28;20043;-75
2024/01/25 08:11:11;;;;;;;119.93;72.60;;;6.50;1.00;;;;;;5070523;28;20045;-75
2024/01/25 08:13:39;;;;;;;117.03;70.20;;;6.70;1.00;;;;;;5073408;28;20090;-76
2024/01/25 08:16:12;;;;;;;118.55;71.90;;;7.00;1.00;;;;;;5072359;28;20488;-75
2024/01/25 08:18:39;;;;;;;117.72;71.32;;;7.30;1.00;;;;;;5062310;28;20118;-74
2024/01/25 08:21:07;;;;;;;116.88;70.28;;;7.50;1.00;;;;;;5071903;28;20039;-74
2024/01/25 08:23:34;;;;;;;113.43;70.40;;;7.70;1.00;;;;;;5072337;28;20041;-74
2024/01/25 08:26:03;;;;;;;115.85;70.13;;;7.90;1.00;;;;;;5071216;28;20499;-74
2024/01/25 08:28:31;;;;;;;114.22;67.82;;;8.20;99.90;;;;;;5069346;28;20036;-74
2024/01/25 08:30:58;;;;;;;112.68;68.45;;;7.90;2.90;;;;;;5071483;28;20044;-76
2024/01/25 08:33:26;;;;;;;118.78;71.63;;;7.90;8.40;;;;;;5071006;28;20095;-75
2024/01/25 08:35:54;;;;;;;128.82;77.18;;;8.10;99.90;;;;;;5072194;28;20064;-73
2024/01/25 08:38:21;;;;;;;130.95;77.53;;;8.10;89.80;;;;;;5077262;28;20083;-76
2024/01/25 08:40:48;;;;;;;125.80;76.18;;;8.10;95.10;;;;;;5072541;28;20050;-76
2024/01/25 08:43:17;;;;;;;132.38;78.38;;;8.20;99.90;;;;;;5073565;28;20036;-76
2024/01/25 08:45:45;;;;;;;124.28;76.95;;;8.40;52.70;;;;;;5072574;28;20412;-77
2024/01/25 08:48:13;;;;;;;127.03;77.55;;;8.40;1.00;;;;;;5071186;28;20536;-78
2024/01/25 08:50:41;;;;;;;124.30;75.65;;;8.40;1.00;;;;;;5071274;28;20431;-76
2024/01/25 08:53:08;;;;;;;120.25;75.22;;;8.30;1.00;;;;;;5073120;28;20029;-77
2024/01/25 08:55:36;;;;;;;112.82;70.30;;;8.40;70.80;;;;;;5070794;28;20036;-78
2024/01/25 08:58:04;;;;;;;105.80;66.72;;;8.50;1.00;;;;;;5070940;28;20051;-77
2024/01/25 09:00:33;;;;;;;115.95;70.70;;;8.70;1.00;;;;;;5072474;28;20256;-75
2024/01/25 09:03:00;;;;;;;112.40;67.50;;;8.90;1.00;;;;;;5072504;28;20064;-77
2024/01/25 09:05:28;;;;;;;108.15;67.53;;;9.20;1.00;;;;;;5069450;28;20056;-76
2024/01/25 09:07:56;;;;;;;101.60;67.80;;;9.40;1.00;;;;;;5063800;28;20063;-77
2024/01/25 09:10:23;;;;;;;100.95;64.47;;;9.50;1.00;;;;;;5067198;28;20044;-77
2024/01/25 09:12:51;;;;;;;105.43;65.43;;;9.70;1.00;;;;;;5071219;28;20045;-76
2024/01/25 09:15:18;;;;;;;110.13;70.65;;;10.00;99.90;;;;;;5069882;28;20040;-76
2024/01/25 09:17:47;;;;;;;114.93;73.18;;;10.10;99.90;;;;;;5068523;28;20048;-77
2024/01/25 09:20:15;;;;;;;108.32;70.30;;;10.40;99.90;;;;;;5071540;28;20620;-76
2024/01/25 09:22:43;;;;;;;103.65;63.70;;;10.60;99.90;;;;;;5068139;28;20051;-76
2024/01/25 09:25:11;;;;;;;84.00;54.40;;;10.70;96.60;;;;;;5074650;28;20044;-75
2024/01/25 09:27:38;;;;;;;75.90;48.42;;;10.70;1.00;;;;;;5060092;28;20045;-77
2024/01/25 09:30:07;;;;;;;70.70;46.90;;;10.70;1.00;;;;;;5073863;28;20053;-78
2024/01/25 09:32:35;;;;;;;76.70;47.97;;;10.70;1.00;;;;;;5070379;28;20120;-77
2024/01/25 09:35:04;;;;;;;77.20;46.72;;;10.60;20.20;;;;;;5071092;28;20063;-75
2024/01/25 09:37:31;;;;;;;78.75;48.08;;;10.80;54.60;;;;;;5071831;28;20059;-77
2024/01/25 09:39:59;;;;;;;81.70;50.63;;;10.90;5.90;;;;;;5070537;28;20454;-77
2024/01/25 09:42:27;;;;;;;80.78;51.03;;;11.00;1.00;;;;;;5071449;28;20079;-76
2024/01/25 09:44:55;;;;;;;78.90;49.15;;;11.00;1.00;;;;;;5076313;28;20436;-76
2024/01/25 09:47:23;;;;;;;74.25;47.55;;;11.10;1.00;;;;;;5047475;28;20043;-77
2024/01/25 09:49:51;;;;;;;65.68;41.60;;;11.20;1.00;;;;;;5074493;28;20109;-75
2024/01/25 09:52:25;;;;;;;61.00;37.17;;;11.20;1.00;;;;;;5071562;28;20519;-76
2024/01/25 09:54:56;;;;;;;57.53;35.53;;;11.20;1.00;;;;;;5069825;28;20074;-77
2024/01/25 09:57:26;;;;;;;57.28;35.65;;;11.30;1.00;;;;;;5067601;28;20031;-79
2024/01/25 09:59:58;;;;;;;55.45;35.67;;;11.50;1.00;;;;;;5069638;28;20101;-77
2024/01/25 10:02:27;;;;;;;57.25;34.33;;;11.50;1.00;;;;;;5069976;28;20098;-79
2024/01/25 10:04:54;;;;;;;53.38;34.92;;;11.50;1.00;;;;;;5073137;28;20533;-77
2024/01/25 10:07:39;;;;;;;56.28;34.42;;;11.70;1.00;;;;;;5065997;28;20040;-77
2024/01/25 10:10:08;;;;;;;55.53;35.30;;;11.60;1.00;;;;;;5053440;28;20048;-78
2024/01/25 10:12:36;;;;;;;50.25;32.10;;;11.70;1.00;;;;;;5072094;28;20408;-77
2024/01/25 10:15:05;;;;;;;50.92;32.40;;;11.80;1.00;;;;;;5073799;28;20123;-77
2024/01/25 10:17:33;;;;;;;51.50;32.65;;;11.80;1.00;;;;;;5071078;28;20495;-76
2024/01/25 10:20:00;;;;;;;49.88;31.77;;;11.60;1.00;;;;;;5070518;28;20506;-77
2024/01/25 10:22:28;;;;;;;47.67;30.83;;;11.50;1.00;;;;;;5074605;28;20036;-79
2024/01/25 10:24:57;;;;;;;47.78;29.90;;;11.30;1.00;;;;;;5075643;28;20044;-75
2024/01/25 10:27:24;;;;;;;48.45;30.05;;;11.20;1.00;;;;;;5070596;28;20044;-76
2024/01/25 10:29:52;;;;;;;42.15;27.85;;;11.20;1.00;;;;;;5097427;28;20048;-77
2024/01/25 10:32:20;;;;;;;47.45;28.63;;;11.20;1.00;;;;;;5076088;28;20427;-76
2024/01/25 10:34:50;;;;;;;59.67;36.35;;;11.40;1.00;;;;;;5064479;28;20415;-79
2024/01/25 10:37:21;;;;;;;52.55;31.65;;;11.40;16.70;;;;;;5093541;28;20045;-76
2024/01/25 10:39:49;;;;;;;41.58;25.00;;;11.40;1.00;;;;;;5061606;28;20078;-76
2024/01/25 10:42:18;;;;;;;36.83;22.70;;;11.40;1.00;;;;;;5068656;28;20036;-76
2024/01/25 10:44:46;;;;;;;31.65;18.63;;;11.50;1.00;;;;;;5067670;28;20032;-76
2024/01/25 10:47:14;;;;;;;28.85;17.50;;;11.50;1.00;;;;;;5069257;28;20090;-76
2024/01/25 10:49:42;;;;;;;29.50;17.08;;;11.50;1.00;;;;;;5069630;28;20036;-75
2024/01/25 10:52:10;;;;;;;24.92;14.57;;;11.60;1.00;;;;;;5069562;28;20072;-78
2024/01/25 10:54:38;;;;;;;22.90;15.00;;;11.60;1.00;;;;;;5068208;28;20037;-75
2024/01/25 10:57:06;;;;;;;24.67;15.80;;;11.60;1.00;;;;;;5087388;28;20036;-75
2024/01/25 10:59:36;;;;;;;23.88;14.85;;;11.60;1.00;;;;;;5090499;28;20056;-77
2024/01/25 11:02:04;;;;;;;25.98;16.20;;;11.70;1.00;;;;;;5090885;28;20043;-76
2024/01/25 11:04:32;;;;;;;26.42;16.05;;;11.80;1.00;;;;;;5085032;28;20036;-77
2024/01/25 11:07:07;;;;;;;24.80;17.00;;;11.80;1.00;;;;;;5067225;28;20060;-75
2024/01/25 11:09:36;;;;;;;33.05;20.20;;;11.80;1.00;;;;;;5070828;28;20032;-75
2024/01/25 11:12:12;;;;;;;26.55;17.50;;;11.80;1.00;;;;;;5071923;28;20036;-78
2024/01/25 11:14:41;;;;;;;28.00;15.80;;;11.80;1.00;;;;;;5069445;28;20037;-77
2024/01/25 11:17:21;;;;;;;29.38;15.40;;;11.90;1.00;;;;;;5069617;28;20502;-76
2024/01/25 11:19:50;;;;;;;25.48;13.45;;;12.00;1.00;;;;;;5070789;28;20095;-78
2024/01/25 11:22:18;;;;;;;28.20;14.90;;;11.90;1.00;;;;;;5067257;28;20040;-77
2024/01/25 11:24:45;;;;;;;24.27;13.85;;;12.00;1.00;;;;;;5069861;28;20119;-75
2024/01/25 11:27:13;;;;;;;24.77;14.07;;;12.00;1.00;;;;;;5067939;28;20033;-74
2024/01/25 11:29:43;;;;;;;22.33;13.32;;;12.00;1.00;;;;;;5068223;28;20512;-74
2024/01/25 11:32:11;;;;;;;26.15;13.93;;;12.10;1.00;;;;;;5070342;28;20040;-74
2024/01/25 11:34:38;;;;;;;29.27;16.63;;;12.10;1.00;;;;;;5071197;28;20499;-74
2024/01/25 11:37:06;;;;;;;26.08;16.25;;;12.20;1.00;;;;;;5069970;28;20040;-76
2024/01/25 11:39:33;;;;;;;35.33;21.77;;;12.20;1.00;;;;;;5069599;28;20056;-74
2024/01/25 11:42:01;;;;;;;23.25;13.77;;;12.20;1.00;;;;;;5068616;28;20538;-74
2024/01/25 11:44:28;;;;;;;21.52;13.10;;;12.40;1.00;;;;;;5068292;28;20048;-76
2024/01/25 11:46:58;;;;;;;21.88;13.38;;;12.40;1.00;;;;;;5072874;28;20488;-76
2024/01/25 11:49:25;;;;;;;19.23;12.35;;;12.50;1.00;;;;;;5074962;28;20056;-74
2024/01/25 11:51:53;;;;;;;22.65;14.30;;;12.60;1.00;;;;;;5073104;28;20040;-76
2024/01/25 11:54:21;;;;;;;22.92;13.75;;;12.60;1.00;;;;;;5072506;28;20036;-74
2024/01/25 11:56:49;;;;;;;22.02;13.50;;;12.60;1.00;;;;;;5071922;28;20056;-76
2024/01/25 14:00:49;;;;;;;4.75;2.42;;;13.80;1.00;;;;;;5217755;22;20044;-74
2024/01/25 14:03:17;;;;;;;7.25;2.65;;;13.60;1.00;;;;;;5061941;28;20045;-76
2024/01/25 14:05:46;;;;;;;5.28;2.15;;;13.40;1.00;;;;;;5062102;28;20080;-77
2024/01/25 14:08:25;;;;;;;5.75;2.63;;;13.50;1.00;;;;;;5061076;28;20067;-78
2024/01/25 14:10:59;;;;;;;5.60;2.88;;;13.60;1.00;;;;;;5070918;22;20059;-78
2024/01/25 14:13:27;;;;;;;10.45;3.70;;;13.70;1.00;;;;;;5079374;28;20043;-76
2024/01/25 14:15:58;;;;;;;10.50;3.78;;;13.80;1.00;;;;;;5088706;28;20415;-77
2024/01/25 14:18:28;;;;;;;7.97;3.17;;;13.90;1.00;;;;;;5076568;28;20043;-76
2024/01/25 14:20:55;;;;;;;7.10;3.78;;;14.00;1.00;;;;;;5081094;28;20044;-77
2024/01/25 14:23:41;;;;;;;7.47;3.78;;;14.10;1.00;;;;;;5083333;28;20049;-80
2024/01/25 14:26:10;;;;;;;11.27;3.95;;;14.10;1.00;;;;;;5084380;28;20035;-79
2024/01/25 14:28:37;;;;;;;9.43;4.35;;;14.20;1.00;;;;;;5079746;28;20475;-77
2024/01/25 14:31:06;;;;;;;7.05;3.17;;;14.10;1.00;;;;;;5080047;28;20097;-77
2024/01/25 14:33:34;;;;;;;8.20;4.13;;;13.90;1.00;;;;;;5077875;28;20047;-76
2024/01/25 14:36:03;;;;;;;9.10;4.43;;;13.80;1.00;;;;;;5076629;28;20036;-76
2024/01/25 14:38:34;;;;;;;9.77;3.83;;;13.70;1.00;;;;;;5078927;28;20427;-74
2024/01/25 14:41:02;;;;;;;10.07;3.90;;;13.60;1.00;;;;;;5075754;28;20052;-76
2024/01/25 14:43:29;;;;;;;11.52;4.22;;;13.50;1.00;;;;;;5079242;28;20498;-78